DAL1882 KATL-TJSJ
Flight info
| Callsign | DAL1882 |
|---|---|
| Flight time | 2h 58m |
| Altitude | 35000 |
| Route | VRSTY3 NOKIE DCT YANTI Q89 MANLE Y185 RENAH Y355 PLING RTE7 SAALR |
| Aircraft | A321/M-SDE3FGHIRWY/LB1 |
Departure
| Time | 2026-05-06 13:52 |
|---|---|
| Airport | Hartsfield Jackson Atlanta International Airport (KATL) |
Arrival
| Time | 2026-05-06 16:51 |
|---|---|
| Airport | Luis Munoz Marin International Airport (TJSJ) |
| Time | Latitude | Longitude | Altitude | Speed | Heading |
|---|---|---|---|---|---|
| 2026-05-06 13:10 | 33.63975 | -84.43873 | 1036 ft | 0 kts | 270° |
| 2026-05-06 13:11 | 33.63919 | -84.43868 | 1036 ft | 0 kts | 270° |
| 2026-05-06 13:39 | 33.63918 | -84.43846 | 1035 ft | 4 kts | 269° |
| 2026-05-06 13:39 | 33.63922 | -84.43815 | 1035 ft | 4 kts | 245° |
| 2026-05-06 13:40 | 33.63937 | -84.43792 | 1035 ft | 4 kts | 200° |
| 2026-05-06 13:40 | 33.63949 | -84.43789 | 1035 ft | 0 kts | 180° |
| 2026-05-06 13:43 | 33.63942 | -84.43789 | 1035 ft | 3 kts | 180° |
| 2026-05-06 13:43 | 33.63900 | -84.43789 | 1035 ft | 9 kts | 180° |
| 2026-05-06 13:43 | 33.63825 | -84.43789 | 1035 ft | 11 kts | 180° |
| 2026-05-06 13:43 | 33.63752 | -84.43789 | 1035 ft | 10 kts | 180° |
| 2026-05-06 13:44 | 33.63688 | -84.43775 | 1035 ft | 9 kts | 149° |
| 2026-05-06 13:44 | 33.63665 | -84.43712 | 1035 ft | 9 kts | 93° |
| 2026-05-06 13:44 | 33.63665 | -84.43631 | 1035 ft | 11 kts | 89° |
| 2026-05-06 13:44 | 33.63666 | -84.43535 | 1035 ft | 13 kts | 91° |
| 2026-05-06 13:45 | 33.63665 | -84.43426 | 1035 ft | 14 kts | 90° |
| 2026-05-06 13:45 | 33.63665 | -84.43191 | 1035 ft | 15 kts | 90° |
| 2026-05-06 13:45 | 33.63665 | -84.43067 | 1035 ft | 15 kts | 90° |
| 2026-05-06 13:46 | 33.63665 | -84.42937 | 1035 ft | 16 kts | 90° |
| 2026-05-06 13:46 | 33.63664 | -84.42802 | 1035 ft | 16 kts | 92° |
| 2026-05-06 13:46 | 33.63656 | -84.42663 | 1036 ft | 17 kts | 91° |
| 2026-05-06 13:46 | 33.63656 | -84.42520 | 1036 ft | 18 kts | 90° |
| 2026-05-06 13:47 | 33.63656 | -84.42371 | 1036 ft | 18 kts | 90° |
| 2026-05-06 13:47 | 33.63656 | -84.42216 | 1036 ft | 19 kts | 90° |
| 2026-05-06 13:47 | 33.63656 | -84.42057 | 1036 ft | 20 kts | 90° |
| 2026-05-06 13:47 | 33.63656 | -84.41895 | 1035 ft | 19 kts | 90° |
| 2026-05-06 13:48 | 33.63656 | -84.41743 | 1035 ft | 17 kts | 90° |
| 2026-05-06 13:48 | 33.63656 | -84.41602 | 1035 ft | 17 kts | 90° |
| 2026-05-06 13:48 | 33.63656 | -84.41465 | 1035 ft | 16 kts | 90° |
| 2026-05-06 13:48 | 33.63656 | -84.41339 | 1035 ft | 14 kts | 90° |
| 2026-05-06 13:49 | 33.63656 | -84.41225 | 1035 ft | 15 kts | 90° |
| 2026-05-06 13:49 | 33.63656 | -84.41090 | 1035 ft | 16 kts | 90° |
| 2026-05-06 13:49 | 33.63656 | -84.40970 | 1035 ft | 11 kts | 90° |
| 2026-05-06 13:49 | 33.63621 | -84.40915 | 1035 ft | 8 kts | 166° |
| 2026-05-06 13:50 | 33.63566 | -84.40913 | 1035 ft | 7 kts | 179° |
| 2026-05-06 13:50 | 33.63534 | -84.40913 | 1036 ft | 6 kts | 180° |
| 2026-05-06 13:50 | 33.63498 | -84.40913 | 1036 ft | 4 kts | 180° |
| 2026-05-06 13:50 | 33.63475 | -84.40927 | 1036 ft | 3 kts | 238° |
| 2026-05-06 13:51 | 33.63473 | -84.40946 | 1036 ft | 0 kts | 268° |
| 2026-05-06 13:51 | 33.63472 | -84.41079 | 1035 ft | 47 kts | 270° |
| 2026-05-06 13:51 | 33.63472 | -84.41732 | 1035 ft | 107 kts | 270° |
| 2026-05-06 13:52 | 33.63472 | -84.42827 | 1036 ft | 153 kts | 270° |
| 2026-05-06 13:52 | 33.63472 | -84.44238 | 1151 ft | 179 kts | 271° |
| 2026-05-06 13:52 | 33.63482 | -84.45721 | 1765 ft | 176 kts | 269° |
| 2026-05-06 13:52 | 33.63486 | -84.47161 | 2390 ft | 174 kts | 267° |
| 2026-05-06 13:53 | 33.63482 | -84.48638 | 2887 ft | 180 kts | 266° |
| 2026-05-06 13:53 | 33.63470 | -84.50230 | 3037 ft | 202 kts | 267° |
| 2026-05-06 13:53 | 33.63457 | -84.51998 | 3149 ft | 230 kts | 267° |
| 2026-05-06 13:53 | 33.63445 | -84.54027 | 3430 ft | 249 kts | 268° |
| 2026-05-06 13:54 | 33.63441 | -84.56073 | 4320 ft | 245 kts | 269° |
| 2026-05-06 13:54 | 33.63447 | -84.58126 | 5058 ft | 248 kts | 269° |
| 2026-05-06 13:54 | 33.63459 | -84.60208 | 5775 ft | 250 kts | 269° |
| 2026-05-06 13:54 | 33.63467 | -84.62299 | 6497 ft | 252 kts | 269° |
| 2026-05-06 13:55 | 33.63211 | -84.64370 | 7161 ft | 254 kts | 250° |
| 2026-05-06 13:55 | 33.62303 | -84.66183 | 7889 ft | 258 kts | 231° |
| 2026-05-06 13:55 | 33.60885 | -84.67547 | 8588 ft | 265 kts | 213° |
| 2026-05-06 13:55 | 33.59229 | -84.68539 | 9307 ft | 265 kts | 213° |
| 2026-05-06 13:56 | 33.57529 | -84.69402 | 10060 ft | 268 kts | 199° |
| 2026-05-06 13:56 | 33.55637 | -84.69521 | 10617 ft | 285 kts | 179° |
| 2026-05-06 13:56 | 33.53643 | -84.69091 | 11169 ft | 295 kts | 178° |
| 2026-05-06 13:56 | 33.51610 | -84.68655 | 11872 ft | 299 kts | 178° |
| 2026-05-06 13:57 | 33.49550 | -84.68236 | 12642 ft | 301 kts | 179° |
| 2026-05-06 13:57 | 33.47470 | -84.67831 | 13386 ft | 304 kts | 180° |
| 2026-05-06 13:57 | 33.45389 | -84.67423 | 13864 ft | 310 kts | 177° |
| 2026-05-06 13:57 | 33.43312 | -84.66559 | 13981 ft | 324 kts | 160° |
| 2026-05-06 13:58 | 33.41440 | -84.64956 | 14021 ft | 346 kts | 141° |
| 2026-05-06 13:58 | 33.39919 | -84.62561 | 14026 ft | 378 kts | 124° |
| 2026-05-06 13:58 | 33.38578 | -84.59751 | 14020 ft | 399 kts | 124° |
| 2026-05-06 13:58 | 33.37172 | -84.56807 | 14095 ft | 415 kts | 124° |
| 2026-05-06 13:59 | 33.35730 | -84.53787 | 14475 ft | 421 kts | 124° |
| 2026-05-06 13:59 | 33.34271 | -84.50736 | 14920 ft | 425 kts | 124° |
| 2026-05-06 13:59 | 33.32793 | -84.47657 | 15359 ft | 429 kts | 124° |
| 2026-05-06 13:59 | 33.31294 | -84.44548 | 15799 ft | 433 kts | 124° |
| 2026-05-06 14:00 | 33.29779 | -84.41412 | 16231 ft | 438 kts | 124° |
| 2026-05-06 14:00 | 33.28245 | -84.38244 | 16656 ft | 442 kts | 124° |
| 2026-05-06 14:00 | 33.26695 | -84.35046 | 17112 ft | 446 kts | 124° |
| 2026-05-06 14:00 | 33.25133 | -84.31823 | 17557 ft | 451 kts | 124° |
| 2026-05-06 14:01 | 33.23574 | -84.28606 | 18044 ft | 456 kts | 124° |
| 2026-05-06 14:01 | 33.21953 | -84.25268 | 18409 ft | 461 kts | 124° |
| 2026-05-06 14:01 | 33.20359 | -84.21989 | 18733 ft | 465 kts | 124° |
| 2026-05-06 14:01 | 33.18729 | -84.18633 | 19089 ft | 468 kts | 123° |
| 2026-05-06 14:02 | 33.17088 | -84.15257 | 19450 ft | 471 kts | 123° |
| 2026-05-06 14:02 | 33.15438 | -84.11865 | 19811 ft | 474 kts | 123° |
| 2026-05-06 14:02 | 33.13777 | -84.08455 | 20172 ft | 477 kts | 123° |
| 2026-05-06 14:02 | 33.12105 | -84.05031 | 20530 ft | 479 kts | 123° |
| 2026-05-06 14:03 | 33.10406 | -84.01597 | 20887 ft | 481 kts | 126° |
| 2026-05-06 14:03 | 33.08409 | -83.98407 | 21232 ft | 480 kts | 135° |
| 2026-05-06 14:03 | 33.06047 | -83.95620 | 21581 ft | 477 kts | 144° |
| 2026-05-06 14:03 | 33.03393 | -83.93267 | 21926 ft | 476 kts | 150° |
| 2026-05-06 14:04 | 33.00666 | -83.91008 | 22241 ft | 479 kts | 150° |
| 2026-05-06 14:04 | 32.97922 | -83.88725 | 22520 ft | 484 kts | 150° |
| 2026-05-06 14:04 | 32.95154 | -83.86412 | 22826 ft | 488 kts | 150° |
| 2026-05-06 14:04 | 32.92373 | -83.84082 | 23151 ft | 491 kts | 150° |
| 2026-05-06 14:05 | 32.89574 | -83.81739 | 23465 ft | 494 kts | 150° |
| 2026-05-06 14:05 | 32.86754 | -83.79382 | 23743 ft | 496 kts | 150° |
| 2026-05-06 14:05 | 32.83920 | -83.77016 | 24026 ft | 499 kts | 149° |
| 2026-05-06 14:05 | 32.81079 | -83.74643 | 24319 ft | 500 kts | 150° |
| 2026-05-06 14:06 | 32.78224 | -83.72265 | 24616 ft | 502 kts | 150° |
| 2026-05-06 14:06 | 32.75355 | -83.69884 | 24911 ft | 504 kts | 150° |
| 2026-05-06 14:06 | 32.72481 | -83.67499 | 25182 ft | 505 kts | 150° |
| 2026-05-06 14:06 | 32.69589 | -83.65100 | 25383 ft | 509 kts | 150° |
| 2026-05-06 14:07 | 32.66683 | -83.62658 | 25623 ft | 513 kts | 149° |
| 2026-05-06 14:07 | 32.63799 | -83.60153 | 25871 ft | 516 kts | 148° |
| 2026-05-06 14:07 | 32.60962 | -83.57624 | 26128 ft | 518 kts | 148° |
| 2026-05-06 14:07 | 32.58084 | -83.55032 | 26391 ft | 520 kts | 147° |
| 2026-05-06 14:08 | 32.55200 | -83.52436 | 26659 ft | 521 kts | 147° |
| 2026-05-06 14:08 | 32.52304 | -83.49849 | 26970 ft | 521 kts | 148° |
| 2026-05-06 14:08 | 32.49395 | -83.47272 | 27248 ft | 522 kts | 148° |
| 2026-05-06 14:08 | 32.46474 | -83.44704 | 27508 ft | 524 kts | 148° |
| 2026-05-06 14:09 | 32.43539 | -83.42136 | 27716 ft | 526 kts | 148° |
| 2026-05-06 14:09 | 32.40579 | -83.39552 | 27846 ft | 531 kts | 149° |
| 2026-05-06 14:09 | 32.37598 | -83.36949 | 28026 ft | 534 kts | 148° |
| 2026-05-06 14:09 | 32.34606 | -83.34326 | 28249 ft | 537 kts | 148° |
| 2026-05-06 14:10 | 32.31602 | -83.31691 | 28509 ft | 539 kts | 148° |
| 2026-05-06 14:10 | 32.28591 | -83.29050 | 28752 ft | 540 kts | 148° |
| 2026-05-06 14:10 | 32.25580 | -83.26409 | 29099 ft | 539 kts | 148° |
| 2026-05-06 14:10 | 32.22566 | -83.23772 | 29421 ft | 539 kts | 148° |
| 2026-05-06 14:11 | 32.19554 | -83.21145 | 29737 ft | 538 kts | 149° |
| 2026-05-06 14:11 | 32.16543 | -83.18520 | 30044 ft | 538 kts | 149° |
| 2026-05-06 14:11 | 32.13534 | -83.15897 | 30281 ft | 538 kts | 149° |
| 2026-05-06 14:11 | 32.10523 | -83.13274 | 30511 ft | 539 kts | 149° |
| 2026-05-06 14:12 | 32.07500 | -83.10645 | 30721 ft | 539 kts | 149° |
| 2026-05-06 14:12 | 32.04522 | -83.08055 | 30958 ft | 540 kts | 149° |
| 2026-05-06 14:12 | 32.01503 | -83.05425 | 31205 ft | 539 kts | 149° |
| 2026-05-06 14:12 | 31.98490 | -83.02804 | 31475 ft | 538 kts | 149° |
| 2026-05-06 14:13 | 31.95477 | -83.00186 | 31743 ft | 538 kts | 149° |
| 2026-05-06 14:13 | 31.92466 | -82.97575 | 32009 ft | 537 kts | 149° |
| 2026-05-06 14:13 | 31.89457 | -82.94971 | 32287 ft | 536 kts | 149° |
| 2026-05-06 14:13 | 31.86451 | -82.92372 | 32528 ft | 536 kts | 149° |
| 2026-05-06 14:14 | 31.83436 | -82.89769 | 32728 ft | 538 kts | 149° |
| 2026-05-06 14:14 | 31.80419 | -82.87167 | 32953 ft | 538 kts | 149° |
| 2026-05-06 14:14 | 31.77407 | -82.84549 | 33189 ft | 539 kts | 148° |
| 2026-05-06 14:14 | 31.74442 | -82.81846 | 33427 ft | 540 kts | 146° |
| 2026-05-06 14:15 | 31.71520 | -82.79066 | 33673 ft | 541 kts | 145° |
| 2026-05-06 14:15 | 31.68623 | -82.76239 | 33923 ft | 541 kts | 144° |
| 2026-05-06 14:15 | 31.65777 | -82.73443 | 34160 ft | 541 kts | 144° |
| 2026-05-06 14:15 | 31.62847 | -82.70590 | 34374 ft | 540 kts | 145° |
| 2026-05-06 14:16 | 31.59976 | -82.67833 | 34596 ft | 539 kts | 146° |
| 2026-05-06 14:16 | 31.57060 | -82.65070 | 34791 ft | 539 kts | 146° |
| 2026-05-06 14:16 | 31.54138 | -82.62324 | 34972 ft | 539 kts | 146° |
| 2026-05-06 14:16 | 31.51206 | -82.59579 | 35085 ft | 539 kts | 146° |
| 2026-05-06 14:17 | 31.45370 | -82.54100 | 35111 ft | 537 kts | 146° |
| 2026-05-06 14:17 | 31.39553 | -82.48616 | 35119 ft | 536 kts | 146° |
| 2026-05-06 14:18 | 31.33739 | -82.43137 | 35114 ft | 536 kts | 146° |
| 2026-05-06 14:18 | 31.27922 | -82.37668 | 35102 ft | 536 kts | 146° |
| 2026-05-06 14:19 | 31.22089 | -82.32201 | 35127 ft | 538 kts | 146° |
| 2026-05-06 14:19 | 31.16244 | -82.26726 | 35139 ft | 538 kts | 146° |
| 2026-05-06 14:20 | 31.10402 | -82.21263 | 35144 ft | 538 kts | 146° |
| 2026-05-06 14:20 | 31.04561 | -82.15812 | 35176 ft | 538 kts | 146° |
| 2026-05-06 14:21 | 30.98717 | -82.10376 | 35119 ft | 537 kts | 146° |
| 2026-05-06 14:21 | 30.92879 | -82.04945 | 35178 ft | 537 kts | 146° |
| 2026-05-06 14:22 | 30.87085 | -81.99550 | 35182 ft | 536 kts | 146° |
| 2026-05-06 14:22 | 30.81257 | -81.94140 | 35156 ft | 536 kts | 146° |
| 2026-05-06 14:23 | 30.75423 | -81.88748 | 35147 ft | 536 kts | 146° |
| 2026-05-06 14:23 | 30.69583 | -81.83360 | 35142 ft | 536 kts | 146° |
| 2026-05-06 14:24 | 30.63756 | -81.77972 | 35113 ft | 535 kts | 146° |
| 2026-05-06 14:24 | 30.57835 | -81.72762 | 35107 ft | 533 kts | 149° |
| 2026-05-06 14:25 | 30.51726 | -81.67927 | 35118 ft | 531 kts | 151° |
| 2026-05-06 14:25 | 30.45573 | -81.63169 | 35118 ft | 532 kts | 150° |
| 2026-05-06 14:26 | 30.39475 | -81.58305 | 35109 ft | 532 kts | 149° |
| 2026-05-06 14:26 | 30.33404 | -81.53385 | 35132 ft | 533 kts | 149° |
| 2026-05-06 14:27 | 30.27366 | -81.48508 | 35128 ft | 533 kts | 150° |
| 2026-05-06 14:27 | 30.21264 | -81.43632 | 35126 ft | 533 kts | 150° |
| 2026-05-06 14:28 | 30.15163 | -81.38770 | 35138 ft | 533 kts | 150° |
| 2026-05-06 14:28 | 30.09067 | -81.33898 | 35119 ft | 532 kts | 149° |
| 2026-05-06 14:29 | 30.02980 | -81.29035 | 35142 ft | 532 kts | 149° |
| 2026-05-06 14:29 | 29.96887 | -81.24192 | 35151 ft | 531 kts | 149° |
| 2026-05-06 14:30 | 29.90802 | -81.19366 | 35151 ft | 531 kts | 149° |
| 2026-05-06 14:30 | 29.84719 | -81.14542 | 35148 ft | 530 kts | 149° |
| 2026-05-06 14:31 | 29.78349 | -81.10585 | 35120 ft | 519 kts | 163° |
| 2026-05-06 14:31 | 29.71665 | -81.07433 | 35124 ft | 519 kts | 163° |
| 2026-05-06 14:32 | 29.64984 | -81.04279 | 35129 ft | 519 kts | 163° |
| 2026-05-06 14:32 | 29.58302 | -81.01111 | 35131 ft | 519 kts | 163° |
| 2026-05-06 14:33 | 29.51625 | -80.97967 | 35098 ft | 519 kts | 163° |
| 2026-05-06 14:33 | 29.44949 | -80.94832 | 35116 ft | 518 kts | 163° |
| 2026-05-06 14:34 | 29.38307 | -80.91715 | 35128 ft | 518 kts | 163° |
| 2026-05-06 14:34 | 29.31642 | -80.88582 | 35133 ft | 518 kts | 162° |
| 2026-05-06 14:35 | 29.24973 | -80.85447 | 35134 ft | 518 kts | 163° |
| 2026-05-06 14:35 | 29.18310 | -80.82324 | 35118 ft | 517 kts | 162° |
| 2026-05-06 14:36 | 29.11649 | -80.79206 | 35125 ft | 517 kts | 162° |
| 2026-05-06 14:36 | 29.04991 | -80.76100 | 35129 ft | 516 kts | 162° |
| 2026-05-06 14:37 | 28.98334 | -80.72999 | 35129 ft | 516 kts | 162° |
| 2026-05-06 14:37 | 28.91742 | -80.69858 | 35093 ft | 519 kts | 157° |
| 2026-05-06 14:38 | 28.85785 | -80.65153 | 35096 ft | 525 kts | 137° |
| 2026-05-06 14:38 | 28.81234 | -80.58661 | 35102 ft | 525 kts | 123° |
| 2026-05-06 14:39 | 28.77194 | -80.51713 | 35105 ft | 526 kts | 123° |
| 2026-05-06 14:39 | 28.73124 | -80.44757 | 35096 ft | 527 kts | 123° |
| 2026-05-06 14:40 | 28.69051 | -80.37819 | 35096 ft | 527 kts | 123° |
| 2026-05-06 14:40 | 28.64983 | -80.30941 | 35099 ft | 527 kts | 123° |
| 2026-05-06 14:41 | 28.60863 | -80.24027 | 35103 ft | 528 kts | 123° |
| 2026-05-06 14:41 | 28.56745 | -80.17119 | 35102 ft | 527 kts | 123° |
| 2026-05-06 14:42 | 28.52634 | -80.10209 | 35136 ft | 527 kts | 123° |
| 2026-05-06 14:42 | 28.48530 | -80.03317 | 35140 ft | 526 kts | 123° |
| 2026-05-06 14:43 | 28.44419 | -79.96432 | 35143 ft | 526 kts | 123° |
| 2026-05-06 14:43 | 28.41002 | -79.90721 | 35141 ft | 526 kts | 123° |
| 2026-05-06 14:44 | 28.36892 | -79.83851 | 35142 ft | 526 kts | 123° |
| 2026-05-06 14:45 | 28.30714 | -79.73563 | 35146 ft | 526 kts | 123° |
| 2026-05-06 14:45 | 28.26592 | -79.66721 | 35121 ft | 525 kts | 123° |
| 2026-05-06 14:46 | 28.22470 | -79.59892 | 35136 ft | 524 kts | 123° |
| 2026-05-06 14:46 | 28.18362 | -79.53076 | 35150 ft | 523 kts | 123° |
| 2026-05-06 14:47 | 28.14255 | -79.46267 | 35155 ft | 523 kts | 123° |
| 2026-05-06 14:47 | 28.10142 | -79.39470 | 35154 ft | 523 kts | 122° |
| 2026-05-06 14:48 | 28.06020 | -79.32690 | 35161 ft | 522 kts | 122° |
| 2026-05-06 14:48 | 28.01930 | -79.25961 | 35147 ft | 522 kts | 122° |
| 2026-05-06 14:49 | 27.97813 | -79.19198 | 35143 ft | 522 kts | 122° |
| 2026-05-06 14:49 | 27.93696 | -79.12439 | 35134 ft | 522 kts | 122° |
| 2026-05-06 14:50 | 27.89578 | -79.05686 | 35160 ft | 521 kts | 122° |
| 2026-05-06 14:50 | 27.85455 | -78.98950 | 35151 ft | 520 kts | 122° |
| 2026-05-06 14:51 | 27.81334 | -78.92235 | 35150 ft | 520 kts | 122° |
| 2026-05-06 14:51 | 27.77218 | -78.85524 | 35149 ft | 519 kts | 122° |
| 2026-05-06 14:52 | 27.73135 | -78.78868 | 35143 ft | 519 kts | 122° |
| 2026-05-06 14:52 | 27.69012 | -78.72172 | 35141 ft | 519 kts | 122° |
| 2026-05-06 14:53 | 27.64891 | -78.65484 | 35141 ft | 519 kts | 122° |
| 2026-05-06 14:53 | 27.60840 | -78.58752 | 35156 ft | 518 kts | 121° |
| 2026-05-06 14:54 | 27.56913 | -78.51943 | 35131 ft | 518 kts | 120° |
| 2026-05-06 14:54 | 27.52998 | -78.45136 | 35138 ft | 518 kts | 120° |
| 2026-05-06 14:55 | 27.49041 | -78.38361 | 35140 ft | 517 kts | 121° |
| 2026-05-06 14:55 | 27.45061 | -78.31607 | 35146 ft | 517 kts | 121° |
| 2026-05-06 14:56 | 27.41084 | -78.24856 | 35145 ft | 517 kts | 121° |
| 2026-05-06 14:56 | 27.37111 | -78.18105 | 35140 ft | 517 kts | 121° |
| 2026-05-06 14:57 | 27.33160 | -78.11405 | 35143 ft | 517 kts | 121° |
| 2026-05-06 14:57 | 27.29188 | -78.04654 | 35136 ft | 517 kts | 121° |
| 2026-05-06 14:58 | 27.25217 | -77.97914 | 35142 ft | 517 kts | 121° |
| 2026-05-06 14:58 | 27.21234 | -77.91185 | 35143 ft | 517 kts | 121° |
| 2026-05-06 14:59 | 27.17243 | -77.84466 | 35140 ft | 517 kts | 121° |
| 2026-05-06 14:59 | 27.13263 | -77.77752 | 35143 ft | 516 kts | 121° |
| 2026-05-06 15:00 | 27.09278 | -77.71040 | 35137 ft | 516 kts | 121° |
| 2026-05-06 15:00 | 27.05292 | -77.64338 | 35139 ft | 516 kts | 121° |
| 2026-05-06 15:01 | 27.01325 | -77.57687 | 35149 ft | 516 kts | 121° |
| 2026-05-06 15:01 | 26.97360 | -77.50977 | 35148 ft | 516 kts | 120° |
| 2026-05-06 15:02 | 26.93452 | -77.44239 | 35141 ft | 515 kts | 120° |
| 2026-05-06 15:02 | 26.89555 | -77.37505 | 35126 ft | 515 kts | 120° |
| 2026-05-06 15:03 | 26.85643 | -77.30789 | 35136 ft | 515 kts | 120° |
| 2026-05-06 15:03 | 26.81712 | -77.24089 | 35135 ft | 515 kts | 120° |
| 2026-05-06 15:04 | 26.77779 | -77.17400 | 35146 ft | 514 kts | 120° |
| 2026-05-06 15:04 | 26.73849 | -77.10717 | 35140 ft | 514 kts | 120° |
| 2026-05-06 15:05 | 26.69926 | -77.04040 | 35141 ft | 513 kts | 120° |
| 2026-05-06 15:05 | 26.65996 | -76.97377 | 35135 ft | 513 kts | 120° |
| 2026-05-06 15:06 | 26.62069 | -76.90718 | 35134 ft | 513 kts | 120° |
| 2026-05-06 15:06 | 26.58146 | -76.84062 | 35139 ft | 513 kts | 121° |
| 2026-05-06 15:07 | 26.54242 | -76.77461 | 35130 ft | 512 kts | 121° |
| 2026-05-06 15:07 | 26.50319 | -76.70833 | 35137 ft | 511 kts | 121° |
| 2026-05-06 15:08 | 26.46389 | -76.64217 | 35135 ft | 511 kts | 121° |
| 2026-05-06 15:08 | 26.42458 | -76.57606 | 35134 ft | 511 kts | 121° |
| 2026-05-06 15:09 | 26.38529 | -76.51002 | 35135 ft | 511 kts | 121° |
| 2026-05-06 15:09 | 26.34599 | -76.44404 | 35134 ft | 511 kts | 121° |
| 2026-05-06 15:10 | 26.30667 | -76.37811 | 35143 ft | 510 kts | 121° |
| 2026-05-06 15:10 | 26.26728 | -76.31233 | 35135 ft | 510 kts | 121° |
| 2026-05-06 15:11 | 26.22788 | -76.24663 | 35134 ft | 510 kts | 121° |
| 2026-05-06 15:11 | 26.18853 | -76.18089 | 35127 ft | 510 kts | 121° |
| 2026-05-06 15:12 | 26.14918 | -76.11519 | 35139 ft | 510 kts | 120° |
| 2026-05-06 15:12 | 26.10977 | -76.04970 | 35137 ft | 509 kts | 121° |
| 2026-05-06 15:13 | 26.07029 | -75.98431 | 35135 ft | 509 kts | 121° |
| 2026-05-06 15:13 | 26.03115 | -75.91935 | 35135 ft | 509 kts | 121° |
| 2026-05-06 15:14 | 25.99174 | -75.85401 | 35137 ft | 509 kts | 121° |
| 2026-05-06 15:14 | 25.95229 | -75.78874 | 35137 ft | 508 kts | 121° |
| 2026-05-06 15:15 | 25.91285 | -75.72352 | 35139 ft | 509 kts | 120° |
| 2026-05-06 15:15 | 25.87335 | -75.65834 | 35131 ft | 509 kts | 120° |
| 2026-05-06 15:16 | 25.83381 | -75.59316 | 35131 ft | 509 kts | 120° |
| 2026-05-06 15:16 | 25.79448 | -75.52852 | 35135 ft | 508 kts | 120° |
| 2026-05-06 15:17 | 25.75488 | -75.46351 | 35139 ft | 508 kts | 120° |
| 2026-05-06 15:17 | 25.71536 | -75.39856 | 35148 ft | 508 kts | 120° |
| 2026-05-06 15:18 | 25.67565 | -75.33372 | 35142 ft | 508 kts | 120° |
| 2026-05-06 15:18 | 25.63597 | -75.26891 | 35140 ft | 508 kts | 120° |
| 2026-05-06 15:19 | 25.59638 | -75.20409 | 35140 ft | 508 kts | 120° |
| 2026-05-06 15:19 | 25.55675 | -75.13932 | 35138 ft | 508 kts | 120° |
| 2026-05-06 15:20 | 25.51699 | -75.07465 | 35135 ft | 508 kts | 120° |
| 2026-05-06 15:20 | 25.47724 | -75.01000 | 35135 ft | 508 kts | 120° |
| 2026-05-06 15:21 | 25.43754 | -74.94538 | 35142 ft | 508 kts | 120° |
| 2026-05-06 15:21 | 25.39799 | -74.88125 | 35143 ft | 508 kts | 120° |
| 2026-05-06 15:22 | 25.35815 | -74.81681 | 35139 ft | 507 kts | 120° |
| 2026-05-06 15:22 | 25.31831 | -74.75238 | 35140 ft | 507 kts | 120° |
| 2026-05-06 15:23 | 25.27846 | -74.68802 | 35143 ft | 507 kts | 120° |
| 2026-05-06 15:23 | 25.23861 | -74.62369 | 35141 ft | 507 kts | 120° |
| 2026-05-06 15:24 | 25.19876 | -74.55943 | 35140 ft | 507 kts | 120° |
| 2026-05-06 15:24 | 25.15883 | -74.49522 | 35140 ft | 507 kts | 120° |
| 2026-05-06 15:25 | 25.11881 | -74.43105 | 35140 ft | 507 kts | 120° |
| 2026-05-06 15:25 | 25.07891 | -74.36700 | 35142 ft | 506 kts | 120° |
| 2026-05-06 15:26 | 25.03904 | -74.30297 | 35153 ft | 506 kts | 120° |
| 2026-05-06 15:26 | 24.99909 | -74.23901 | 35143 ft | 506 kts | 120° |
| 2026-05-06 15:27 | 24.95937 | -74.17551 | 35134 ft | 507 kts | 120° |
| 2026-05-06 15:27 | 24.91932 | -74.11160 | 35134 ft | 507 kts | 120° |
| 2026-05-06 15:28 | 24.87924 | -74.04773 | 35138 ft | 507 kts | 120° |
| 2026-05-06 15:28 | 24.83907 | -73.98390 | 35152 ft | 507 kts | 120° |
| 2026-05-06 15:29 | 24.79894 | -73.92005 | 35135 ft | 507 kts | 120° |
| 2026-05-06 15:29 | 24.75879 | -73.85619 | 35129 ft | 507 kts | 120° |
| 2026-05-06 15:30 | 24.71855 | -73.79243 | 35124 ft | 507 kts | 120° |
| 2026-05-06 15:30 | 24.67833 | -73.72874 | 35134 ft | 507 kts | 120° |
| 2026-05-06 15:31 | 24.63810 | -73.66510 | 35136 ft | 507 kts | 120° |
| 2026-05-06 15:31 | 24.59786 | -73.60143 | 35141 ft | 507 kts | 120° |
| 2026-05-06 15:32 | 24.53898 | -73.50515 | 35137 ft | 504 kts | 116° |
| 2026-05-06 15:32 | 24.50382 | -73.43878 | 35133 ft | 502 kts | 114° |
| 2026-05-06 15:33 | 24.46936 | -73.37200 | 35131 ft | 502 kts | 114° |
| 2026-05-06 15:33 | 24.43399 | -73.30576 | 35129 ft | 503 kts | 115° |
| 2026-05-06 15:34 | 24.39791 | -73.23990 | 35134 ft | 504 kts | 115° |
| 2026-05-06 15:34 | 24.36785 | -73.18512 | 35123 ft | 503 kts | 115° |
| 2026-05-06 15:35 | 24.32615 | -73.10851 | 35125 ft | 503 kts | 115° |
| 2026-05-06 15:35 | 24.29044 | -73.04255 | 35128 ft | 503 kts | 115° |
| 2026-05-06 15:36 | 24.25459 | -72.97663 | 35129 ft | 503 kts | 115° |
| 2026-05-06 15:36 | 24.22470 | -72.92197 | 35141 ft | 503 kts | 115° |
| 2026-05-06 15:37 | 24.18874 | -72.85623 | 35143 ft | 503 kts | 115° |
| 2026-05-06 15:37 | 24.15280 | -72.79060 | 35140 ft | 502 kts | 115° |
| 2026-05-06 15:38 | 24.11687 | -72.72501 | 35136 ft | 502 kts | 115° |
| 2026-05-06 15:38 | 24.08094 | -72.65948 | 35135 ft | 502 kts | 115° |
| 2026-05-06 15:39 | 24.04501 | -72.59400 | 35151 ft | 502 kts | 116° |
| 2026-05-06 15:39 | 24.00901 | -72.52857 | 35151 ft | 502 kts | 116° |
| 2026-05-06 15:40 | 23.97301 | -72.46322 | 35139 ft | 501 kts | 116° |
| 2026-05-06 15:40 | 23.93701 | -72.39803 | 35143 ft | 501 kts | 116° |
| 2026-05-06 15:41 | 23.90098 | -72.33291 | 35146 ft | 500 kts | 116° |
| 2026-05-06 15:41 | 23.86534 | -72.26826 | 35144 ft | 500 kts | 116° |
| 2026-05-06 15:42 | 23.82938 | -72.20325 | 35155 ft | 500 kts | 116° |
| 2026-05-06 15:42 | 23.79336 | -72.13842 | 35152 ft | 499 kts | 116° |
| 2026-05-06 15:43 | 23.75736 | -72.07356 | 35154 ft | 498 kts | 116° |
| 2026-05-06 15:43 | 23.72143 | -72.00880 | 35152 ft | 498 kts | 116° |
| 2026-05-06 15:44 | 23.68539 | -71.94422 | 35150 ft | 498 kts | 116° |
| 2026-05-06 15:44 | 23.64963 | -71.88014 | 35154 ft | 498 kts | 117° |
| 2026-05-06 15:45 | 23.61365 | -71.81572 | 35154 ft | 497 kts | 118° |
| 2026-05-06 15:45 | 23.57271 | -71.75452 | 35151 ft | 499 kts | 123° |
| 2026-05-06 15:46 | 23.53091 | -71.69410 | 35150 ft | 499 kts | 123° |
| 2026-05-06 15:46 | 23.48907 | -71.63374 | 35149 ft | 499 kts | 123° |
| 2026-05-06 15:47 | 23.44716 | -71.57345 | 35147 ft | 499 kts | 123° |
| 2026-05-06 15:47 | 23.40525 | -71.51325 | 35159 ft | 498 kts | 123° |
| 2026-05-06 15:48 | 23.36349 | -71.45315 | 35154 ft | 497 kts | 123° |
| 2026-05-06 15:48 | 23.32180 | -71.39316 | 35146 ft | 497 kts | 123° |
| 2026-05-06 15:49 | 23.28030 | -71.33373 | 35148 ft | 496 kts | 123° |
| 2026-05-06 15:49 | 23.23858 | -71.27395 | 35151 ft | 496 kts | 123° |
| 2026-05-06 15:50 | 23.19682 | -71.21425 | 35143 ft | 496 kts | 123° |
| 2026-05-06 15:50 | 23.15498 | -71.15455 | 35145 ft | 496 kts | 123° |
| 2026-05-06 15:51 | 23.11327 | -71.09493 | 35141 ft | 495 kts | 123° |
| 2026-05-06 15:51 | 23.07157 | -71.03535 | 35141 ft | 495 kts | 124° |
| 2026-05-06 15:52 | 23.02972 | -70.97594 | 35145 ft | 495 kts | 124° |
| 2026-05-06 15:52 | 22.98791 | -70.91650 | 35141 ft | 495 kts | 124° |
| 2026-05-06 15:53 | 22.94639 | -70.85748 | 35161 ft | 495 kts | 124° |
| 2026-05-06 15:53 | 22.90460 | -70.79819 | 35150 ft | 494 kts | 124° |
| 2026-05-06 15:54 | 22.86281 | -70.73905 | 35139 ft | 494 kts | 124° |
| 2026-05-06 15:54 | 22.82109 | -70.67999 | 35141 ft | 493 kts | 124° |
| 2026-05-06 15:55 | 22.77928 | -70.62100 | 35138 ft | 493 kts | 124° |
| 2026-05-06 15:55 | 22.73738 | -70.56215 | 35139 ft | 493 kts | 124° |
| 2026-05-06 15:56 | 22.69553 | -70.50330 | 35153 ft | 493 kts | 125° |
| 2026-05-06 15:56 | 22.65370 | -70.44453 | 35152 ft | 492 kts | 125° |
| 2026-05-06 15:57 | 22.61197 | -70.38579 | 35148 ft | 492 kts | 124° |
| 2026-05-06 15:57 | 22.56972 | -70.32757 | 35145 ft | 492 kts | 127° |
| 2026-05-06 15:58 | 22.52548 | -70.27099 | 35143 ft | 493 kts | 128° |
| 2026-05-06 15:58 | 22.48071 | -70.21493 | 35134 ft | 492 kts | 128° |
| 2026-05-06 15:59 | 22.43664 | -70.15897 | 35148 ft | 492 kts | 128° |
| 2026-05-06 15:59 | 22.39258 | -70.10246 | 35150 ft | 491 kts | 128° |
| 2026-05-06 16:00 | 22.34860 | -70.04605 | 35147 ft | 491 kts | 128° |
| 2026-05-06 16:00 | 22.30458 | -69.98978 | 35146 ft | 490 kts | 128° |
| 2026-05-06 16:01 | 22.26049 | -69.93346 | 35146 ft | 490 kts | 128° |
| 2026-05-06 16:01 | 22.21645 | -69.87729 | 35145 ft | 490 kts | 128° |
| 2026-05-06 16:02 | 22.17264 | -69.82151 | 35153 ft | 490 kts | 129° |
| 2026-05-06 16:02 | 22.12855 | -69.76546 | 35152 ft | 489 kts | 129° |
| 2026-05-06 16:03 | 22.08452 | -69.70954 | 35142 ft | 489 kts | 129° |
| 2026-05-06 16:03 | 22.04038 | -69.65368 | 35141 ft | 489 kts | 129° |
| 2026-05-06 16:04 | 21.99627 | -69.59783 | 35143 ft | 489 kts | 129° |
| 2026-05-06 16:04 | 21.95220 | -69.54195 | 35143 ft | 489 kts | 129° |
| 2026-05-06 16:05 | 21.90813 | -69.48608 | 35148 ft | 489 kts | 130° |
| 2026-05-06 16:05 | 21.86432 | -69.43076 | 35145 ft | 488 kts | 130° |
| 2026-05-06 16:06 | 21.82027 | -69.37514 | 35145 ft | 488 kts | 130° |
| 2026-05-06 16:06 | 21.77620 | -69.31952 | 35145 ft | 488 kts | 130° |
| 2026-05-06 16:07 | 21.73213 | -69.26398 | 35128 ft | 487 kts | 130° |
| 2026-05-06 16:07 | 21.68802 | -69.20857 | 35132 ft | 487 kts | 130° |
| 2026-05-06 16:08 | 21.64388 | -69.15325 | 35139 ft | 487 kts | 131° |
| 2026-05-06 16:08 | 21.60012 | -69.09823 | 35138 ft | 487 kts | 130° |
| 2026-05-06 16:09 | 21.55607 | -69.04290 | 35137 ft | 486 kts | 130° |
| 2026-05-06 16:09 | 21.51208 | -68.98769 | 35132 ft | 486 kts | 131° |
| 2026-05-06 16:10 | 21.46809 | -68.93259 | 35127 ft | 486 kts | 131° |
| 2026-05-06 16:10 | 21.42406 | -68.87746 | 35127 ft | 486 kts | 131° |
| 2026-05-06 16:11 | 21.38001 | -68.82243 | 35127 ft | 486 kts | 131° |
| 2026-05-06 16:11 | 21.33595 | -68.76738 | 35130 ft | 486 kts | 131° |
| 2026-05-06 16:12 | 21.29177 | -68.71243 | 35130 ft | 486 kts | 131° |
| 2026-05-06 16:12 | 21.24762 | -68.65753 | 35131 ft | 486 kts | 131° |
| 2026-05-06 16:13 | 21.20349 | -68.60267 | 35132 ft | 486 kts | 131° |
| 2026-05-06 16:13 | 21.15971 | -68.54810 | 35132 ft | 486 kts | 131° |
| 2026-05-06 16:14 | 21.11557 | -68.49326 | 35134 ft | 486 kts | 132° |
| 2026-05-06 16:14 | 21.07143 | -68.43849 | 35141 ft | 486 kts | 132° |
| 2026-05-06 16:15 | 21.02725 | -68.38373 | 35142 ft | 485 kts | 132° |
| 2026-05-06 16:15 | 20.98311 | -68.32909 | 35135 ft | 485 kts | 132° |
| 2026-05-06 16:16 | 20.93899 | -68.27456 | 35138 ft | 484 kts | 132° |
| 2026-05-06 16:16 | 20.89495 | -68.22007 | 35138 ft | 484 kts | 132° |
| 2026-05-06 16:17 | 20.85095 | -68.16569 | 35143 ft | 483 kts | 132° |
| 2026-05-06 16:17 | 20.80565 | -68.11281 | 35140 ft | 480 kts | 141° |
| 2026-05-06 16:18 | 20.75006 | -68.07478 | 35136 ft | 473 kts | 160° |
| 2026-05-06 16:18 | 20.68786 | -68.05353 | 35133 ft | 469 kts | 167° |
| 2026-05-06 16:19 | 20.62510 | -68.03409 | 35121 ft | 470 kts | 167° |
| 2026-05-06 16:19 | 20.56274 | -68.01451 | 35128 ft | 470 kts | 167° |
| 2026-05-06 16:20 | 20.49996 | -67.99491 | 35129 ft | 470 kts | 167° |
| 2026-05-06 16:20 | 20.43721 | -67.97548 | 35130 ft | 469 kts | 167° |
| 2026-05-06 16:21 | 20.37445 | -67.95617 | 35131 ft | 470 kts | 167° |
| 2026-05-06 16:21 | 20.31170 | -67.93676 | 35111 ft | 469 kts | 167° |
| 2026-05-06 16:22 | 20.24894 | -67.91732 | 35111 ft | 470 kts | 167° |
| 2026-05-06 16:22 | 20.18617 | -67.89792 | 35115 ft | 470 kts | 167° |
| 2026-05-06 16:23 | 20.12331 | -67.87861 | 35121 ft | 470 kts | 167° |
| 2026-05-06 16:23 | 20.06045 | -67.85928 | 35124 ft | 470 kts | 167° |
| 2026-05-06 16:24 | 19.99755 | -67.83991 | 35126 ft | 470 kts | 167° |
| 2026-05-06 16:24 | 19.93514 | -67.82065 | 35128 ft | 470 kts | 167° |
| 2026-05-06 16:25 | 19.87229 | -67.80128 | 35127 ft | 470 kts | 167° |
| 2026-05-06 16:25 | 19.80946 | -67.78193 | 35127 ft | 470 kts | 167° |
| 2026-05-06 16:26 | 19.74657 | -67.76264 | 35127 ft | 470 kts | 167° |
| 2026-05-06 16:26 | 19.68369 | -67.74335 | 35112 ft | 470 kts | 167° |
| 2026-05-06 16:27 | 19.62083 | -67.72407 | 35122 ft | 470 kts | 167° |
| 2026-05-06 16:27 | 19.55795 | -67.70484 | 34938 ft | 470 kts | 167° |
| 2026-05-06 16:28 | 19.52656 | -67.69525 | 34712 ft | 470 kts | 167° |
| 2026-05-06 16:28 | 19.49551 | -67.68577 | 34488 ft | 470 kts | 167° |
| 2026-05-06 16:28 | 19.46401 | -67.67615 | 34265 ft | 471 kts | 167° |
| 2026-05-06 16:28 | 19.43253 | -67.66651 | 34024 ft | 471 kts | 167° |
| 2026-05-06 16:29 | 19.40122 | -67.65617 | 33758 ft | 474 kts | 161° |
| 2026-05-06 16:29 | 19.37146 | -67.64097 | 33498 ft | 478 kts | 151° |
| 2026-05-06 16:29 | 19.34418 | -67.62055 | 32815 ft | 484 kts | 141° |
| 2026-05-06 16:29 | 19.32040 | -67.59481 | 31784 ft | 494 kts | 129° |
| 2026-05-06 16:30 | 19.30119 | -67.56435 | 30860 ft | 500 kts | 121° |
| 2026-05-06 16:30 | 19.29523 | -67.55361 | 30488 ft | 503 kts | 121° |
| 2026-05-06 16:30 | 19.27135 | -67.51100 | 29081 ft | 509 kts | 121° |
| 2026-05-06 16:30 | 19.25326 | -67.47917 | 28547 ft | 502 kts | 121° |
| 2026-05-06 16:31 | 19.23523 | -67.44766 | 27856 ft | 498 kts | 121° |
| 2026-05-06 16:31 | 19.21728 | -67.41646 | 27184 ft | 495 kts | 121° |
| 2026-05-06 16:31 | 19.19945 | -67.38544 | 26523 ft | 491 kts | 121° |
| 2026-05-06 16:31 | 19.18176 | -67.35462 | 25870 ft | 488 kts | 121° |
| 2026-05-06 16:32 | 19.16433 | -67.32415 | 25299 ft | 482 kts | 121° |
| 2026-05-06 16:32 | 19.14705 | -67.29389 | 24753 ft | 476 kts | 121° |
| 2026-05-06 16:32 | 19.13007 | -67.26412 | 24212 ft | 471 kts | 121° |
| 2026-05-06 16:32 | 19.11326 | -67.23463 | 23619 ft | 465 kts | 120° |
| 2026-05-06 16:33 | 19.09675 | -67.20569 | 22613 ft | 454 kts | 121° |
| 2026-05-06 16:33 | 19.08085 | -67.17790 | 22183 ft | 430 kts | 121° |
| 2026-05-06 16:33 | 19.06560 | -67.15129 | 21684 ft | 419 kts | 121° |
| 2026-05-06 16:34 | 19.03597 | -67.09954 | 20741 ft | 410 kts | 121° |
| 2026-05-06 16:34 | 19.02130 | -67.07394 | 20288 ft | 405 kts | 121° |
| 2026-05-06 16:34 | 19.00676 | -67.04862 | 19840 ft | 401 kts | 121° |
| 2026-05-06 16:34 | 18.99238 | -67.02357 | 19398 ft | 397 kts | 122° |
| 2026-05-06 16:35 | 18.97810 | -66.99876 | 18954 ft | 394 kts | 122° |
| 2026-05-06 16:35 | 18.96393 | -66.97410 | 18501 ft | 391 kts | 122° |
| 2026-05-06 16:35 | 18.94987 | -66.94961 | 18007 ft | 389 kts | 121° |
| 2026-05-06 16:35 | 18.93602 | -66.92549 | 17795 ft | 378 kts | 122° |
| 2026-05-06 16:36 | 18.92264 | -66.90224 | 17650 ft | 361 kts | 122° |
| 2026-05-06 16:36 | 18.90988 | -66.88005 | 17204 ft | 348 kts | 121° |
| 2026-05-06 16:36 | 18.89749 | -66.85844 | 16577 ft | 342 kts | 122° |
| 2026-05-06 16:36 | 18.88525 | -66.83711 | 15959 ft | 337 kts | 121° |
| 2026-05-06 16:37 | 18.87316 | -66.81609 | 15308 ft | 334 kts | 122° |
| 2026-05-06 16:37 | 18.86122 | -66.79537 | 14832 ft | 325 kts | 122° |
| 2026-05-06 16:37 | 18.84955 | -66.77516 | 14416 ft | 322 kts | 122° |
| 2026-05-06 16:37 | 18.83787 | -66.75493 | 13992 ft | 324 kts | 122° |
| 2026-05-06 16:38 | 18.82617 | -66.73462 | 13591 ft | 322 kts | 122° |
| 2026-05-06 16:38 | 18.81455 | -66.71445 | 13132 ft | 323 kts | 122° |
| 2026-05-06 16:38 | 18.80302 | -66.69443 | 12829 ft | 315 kts | 122° |
| 2026-05-06 16:38 | 18.79172 | -66.67482 | 12242 ft | 310 kts | 122° |
| 2026-05-06 16:39 | 18.78070 | -66.65571 | 11806 ft | 301 kts | 122° |
| 2026-05-06 16:39 | 18.76999 | -66.63713 | 11385 ft | 292 kts | 122° |
| 2026-05-06 16:39 | 18.75941 | -66.61925 | 10983 ft | 282 kts | 127° |
| 2026-05-06 16:39 | 18.74708 | -66.60314 | 10744 ft | 290 kts | 130° |
| 2026-05-06 16:40 | 18.73418 | -66.58664 | 10496 ft | 298 kts | 130° |
| 2026-05-06 16:40 | 18.72084 | -66.56944 | 10238 ft | 299 kts | 130° |
| 2026-05-06 16:40 | 18.70788 | -66.55270 | 9984 ft | 298 kts | 130° |
| 2026-05-06 16:40 | 18.69483 | -66.53585 | 9712 ft | 296 kts | 130° |
| 2026-05-06 16:41 | 18.68183 | -66.51908 | 9455 ft | 294 kts | 130° |
| 2026-05-06 16:41 | 18.66892 | -66.50240 | 9205 ft | 293 kts | 130° |
| 2026-05-06 16:41 | 18.65608 | -66.48581 | 8955 ft | 291 kts | 130° |
| 2026-05-06 16:41 | 18.64330 | -66.46931 | 8706 ft | 290 kts | 129° |
| 2026-05-06 16:42 | 18.63059 | -66.45288 | 8458 ft | 289 kts | 129° |
| 2026-05-06 16:42 | 18.61789 | -66.43650 | 8208 ft | 287 kts | 129° |
| 2026-05-06 16:42 | 18.60528 | -66.42022 | 7969 ft | 286 kts | 129° |
| 2026-05-06 16:42 | 18.59273 | -66.40408 | 7728 ft | 284 kts | 129° |
| 2026-05-06 16:43 | 18.58025 | -66.38804 | 7478 ft | 282 kts | 129° |
| 2026-05-06 16:43 | 18.56786 | -66.37212 | 7215 ft | 279 kts | 129° |
| 2026-05-06 16:43 | 18.55594 | -66.35681 | 7012 ft | 260 kts | 129° |
| 2026-05-06 16:43 | 18.54479 | -66.34251 | 6766 ft | 245 kts | 129° |
| 2026-05-06 16:44 | 18.53425 | -66.32899 | 6529 ft | 234 kts | 129° |
| 2026-05-06 16:44 | 18.52407 | -66.31593 | 6327 ft | 228 kts | 129° |
| 2026-05-06 16:44 | 18.51413 | -66.30315 | 6075 ft | 225 kts | 129° |
| 2026-05-06 16:44 | 18.50432 | -66.29051 | 5835 ft | 225 kts | 129° |
| 2026-05-06 16:45 | 18.49450 | -66.27786 | 5595 ft | 221 kts | 129° |
| 2026-05-06 16:45 | 18.48477 | -66.26533 | 5349 ft | 222 kts | 129° |
| 2026-05-06 16:45 | 18.47501 | -66.25272 | 5111 ft | 221 kts | 129° |
| 2026-05-06 16:45 | 18.46531 | -66.24019 | 4872 ft | 220 kts | 129° |
| 2026-05-06 16:46 | 18.45558 | -66.22761 | 4632 ft | 222 kts | 129° |
| 2026-05-06 16:46 | 18.44592 | -66.21513 | 4353 ft | 217 kts | 129° |
| 2026-05-06 16:46 | 18.43643 | -66.20290 | 4009 ft | 214 kts | 129° |
| 2026-05-06 16:46 | 18.42975 | -66.18915 | 3683 ft | 214 kts | 99° |
| 2026-05-06 16:47 | 18.43218 | -66.17377 | 3362 ft | 215 kts | 75° |
| 2026-05-06 16:47 | 18.43429 | -66.15843 | 3013 ft | 210 kts | 91° |
| 2026-05-06 16:47 | 18.43400 | -66.14312 | 2676 ft | 204 kts | 92° |
| 2026-05-06 16:47 | 18.43383 | -66.12864 | 2227 ft | 193 kts | 91° |
| 2026-05-06 16:48 | 18.43377 | -66.11486 | 1903 ft | 185 kts | 90° |
| 2026-05-06 16:48 | 18.43374 | -66.10164 | 1632 ft | 174 kts | 91° |
| 2026-05-06 16:48 | 18.43372 | -66.08961 | 1429 ft | 156 kts | 91° |
| 2026-05-06 16:48 | 18.43370 | -66.07865 | 1212 ft | 143 kts | 91° |
| 2026-05-06 16:49 | 18.43368 | -66.06838 | 1036 ft | 139 kts | 91° |
| 2026-05-06 16:49 | 18.43364 | -66.05824 | 862 ft | 140 kts | 90° |
| 2026-05-06 16:49 | 18.43359 | -66.04823 | 699 ft | 140 kts | 89° |
| 2026-05-06 16:49 | 18.43357 | -66.03811 | 493 ft | 136 kts | 89° |
| 2026-05-06 16:50 | 18.43356 | -66.02808 | 318 ft | 137 kts | 88° |
| 2026-05-06 16:50 | 18.43354 | -66.01815 | 136 ft | 135 kts | 88° |
| 2026-05-06 16:50 | 18.43355 | -66.00837 | 27 ft | 127 kts | 89° |
| 2026-05-06 16:50 | 18.43354 | -66.00052 | 17 ft | 72 kts | 90° |
| 2026-05-06 16:51 | 18.43352 | -65.99744 | 17 ft | 32 kts | 90° |
| 2026-05-06 16:51 | 18.43365 | -65.99592 | 18 ft | 14 kts | 66° |
| 2026-05-06 16:51 | 18.43428 | -65.99550 | 17 ft | 7 kts | 1° |
| 2026-05-06 16:51 | 18.43458 | -65.99582 | 17 ft | 6 kts | 290° |
| 2026-05-06 16:52 | 18.43463 | -65.99622 | 17 ft | 6 kts | 273° |
| 2026-05-06 16:52 | 18.43464 | -65.99691 | 17 ft | 14 kts | 270° |
| 2026-05-06 16:52 | 18.43464 | -65.99808 | 17 ft | 15 kts | 270° |
| 2026-05-06 16:52 | 18.43470 | -65.99893 | 17 ft | 10 kts | 299° |
| 2026-05-06 16:53 | 18.43528 | -65.99917 | 17 ft | 9 kts | 349° |
| 2026-05-06 16:53 | 18.43562 | -65.99959 | 17 ft | 7 kts | 285° |
| 2026-05-06 16:53 | 18.43563 | -65.99966 | 17 ft | 0 kts | 281° |
| 2026-05-06 16:53 | 18.43573 | -65.99978 | 18 ft | 4 kts | 320° |
| 2026-05-06 16:54 | 18.43615 | -65.99978 | 18 ft | 9 kts | 2° |
| 2026-05-06 16:54 | 18.43681 | -65.99990 | 17 ft | 9 kts | 313° |
| 2026-05-06 16:54 | 18.43681 | -66.00049 | 17 ft | 7 kts | 258° |
| 2026-05-06 16:54 | 18.43675 | -66.00079 | 17 ft | 2 kts | 259° |
| 2026-05-06 16:55 | 18.43674 | -66.00084 | 17 ft | 0 kts | 259° |